GLD1386 SBSN-SBBV
Flight info
| Callsign | GLD1386 |
|---|---|
| Flight time | 1h 16m |
| Altitude | 32000 |
| Route | SOBID DCT LODOK UZ24 ILVIS DCT ANBIX |
| Aircraft | B738/M-SDE2E3FGHIRWXY/LB1 |
Departure
| Time | 2026-04-21 22:25 |
|---|---|
| Airport | Santarém - Maestro Wilson Fonseca International Airport (SBSN) |
Arrival
| Time | 2026-04-21 23:41 |
|---|---|
| Airport | Atlas Brasil Cantanhede International Airport (SBBV) |
| Time | Latitude | Longitude | Altitude | Speed | Heading |
|---|---|---|---|---|---|
| 2026-04-21 21:52 | -2.42413 | -54.78565 | 207 ft | 0 kts | 123° |
| 2026-04-21 22:15 | -2.42409 | -54.78572 | 207 ft | 2 kts | 118° |
| 2026-04-21 22:15 | -2.42403 | -54.78586 | 207 ft | 2 kts | 107° |
| 2026-04-21 22:15 | -2.42399 | -54.78601 | 207 ft | 2 kts | 107° |
| 2026-04-21 22:15 | -2.42394 | -54.78615 | 207 ft | 2 kts | 107° |
| 2026-04-21 22:16 | -2.42392 | -54.78625 | 207 ft | 0 kts | 107° |
| 2026-04-21 22:19 | -2.42392 | -54.78619 | 207 ft | 2 kts | 91° |
| 2026-04-21 22:19 | -2.42386 | -54.78598 | 207 ft | 3 kts | 54° |
| 2026-04-21 22:20 | -2.42359 | -54.78577 | 207 ft | 5 kts | 36° |
| 2026-04-21 22:20 | -2.42332 | -54.78546 | 207 ft | 6 kts | 67° |
| 2026-04-21 22:20 | -2.42317 | -54.78498 | 207 ft | 7 kts | 75° |
| 2026-04-21 22:20 | -2.42307 | -54.78444 | 207 ft | 8 kts | 85° |
| 2026-04-21 22:21 | -2.42308 | -54.78383 | 207 ft | 9 kts | 92° |
| 2026-04-21 22:21 | -2.42301 | -54.78320 | 207 ft | 9 kts | 54° |
| 2026-04-21 22:21 | -2.42245 | -54.78285 | 207 ft | 9 kts | 25° |
| 2026-04-21 22:21 | -2.42190 | -54.78260 | 207 ft | 1 kts | 24° |
| 2026-04-21 22:22 | -2.42185 | -54.78257 | 207 ft | 1 kts | 24° |
| 2026-04-21 22:23 | -2.42167 | -54.78249 | 207 ft | 3 kts | 24° |
| 2026-04-21 22:23 | -2.42141 | -54.78238 | 207 ft | 4 kts | 24° |
| 2026-04-21 22:23 | -2.42108 | -54.78225 | 207 ft | 5 kts | 6° |
| 2026-04-21 22:23 | -2.42080 | -54.78243 | 207 ft | 5 kts | 302° |
| 2026-04-21 22:24 | -2.42078 | -54.78271 | 207 ft | 0 kts | 262° |
| 2026-04-21 22:24 | -2.42079 | -54.78278 | 207 ft | 8 kts | 262° |
| 2026-04-21 22:25 | -2.42116 | -54.78505 | 207 ft | 61 kts | 260° |
| 2026-04-21 22:25 | -2.42228 | -54.79181 | 207 ft | 132 kts | 261° |
| 2026-04-21 22:25 | -2.42403 | -54.80270 | 371 ft | 172 kts | 261° |
| 2026-04-21 22:25 | -2.42583 | -54.81476 | 990 ft | 179 kts | 260° |
| 2026-04-21 22:26 | -2.42803 | -54.82706 | 1692 ft | 185 kts | 260° |
| 2026-04-21 22:26 | -2.43018 | -54.84037 | 1987 ft | 205 kts | 264° |
| 2026-04-21 22:26 | -2.42900 | -54.85554 | 2100 ft | 233 kts | 291° |
| 2026-04-21 22:26 | -2.42087 | -54.87036 | 2487 ft | 251 kts | 303° |
| 2026-04-21 22:27 | -2.41109 | -54.88560 | 2938 ft | 268 kts | 303° |
| 2026-04-21 22:27 | -2.40090 | -54.90135 | 3650 ft | 273 kts | 304° |
| 2026-04-21 22:27 | -2.39052 | -54.91744 | 4389 ft | 278 kts | 304° |
| 2026-04-21 22:27 | -2.38001 | -54.93375 | 5126 ft | 282 kts | 304° |
| 2026-04-21 22:28 | -2.36934 | -54.95032 | 5859 ft | 285 kts | 304° |
| 2026-04-21 22:28 | -2.35860 | -54.96701 | 6579 ft | 289 kts | 304° |
| 2026-04-21 22:28 | -2.34782 | -54.98375 | 7297 ft | 293 kts | 304° |
| 2026-04-21 22:28 | -2.33691 | -55.00072 | 8015 ft | 296 kts | 304° |
| 2026-04-21 22:29 | -2.32564 | -55.01823 | 8749 ft | 300 kts | 304° |
| 2026-04-21 22:29 | -2.31435 | -55.03576 | 9472 ft | 303 kts | 304° |
| 2026-04-21 22:29 | -2.30291 | -55.05355 | 10168 ft | 308 kts | 304° |
| 2026-04-21 22:29 | -2.29080 | -55.07234 | 10345 ft | 333 kts | 304° |
| 2026-04-21 22:30 | -2.27788 | -55.09238 | 10668 ft | 350 kts | 304° |
| 2026-04-21 22:30 | -2.26451 | -55.11316 | 11367 ft | 356 kts | 304° |
| 2026-04-21 22:30 | -2.25144 | -55.13348 | 12081 ft | 360 kts | 304° |
| 2026-04-21 22:30 | -2.23786 | -55.15459 | 12838 ft | 364 kts | 304° |
| 2026-04-21 22:31 | -2.22423 | -55.17582 | 13614 ft | 367 kts | 304° |
| 2026-04-21 22:31 | -2.21065 | -55.19709 | 14449 ft | 367 kts | 304° |
| 2026-04-21 22:31 | -2.19740 | -55.21771 | 15207 ft | 370 kts | 304° |
| 2026-04-21 22:31 | -2.18356 | -55.23914 | 15963 ft | 373 kts | 304° |
| 2026-04-21 22:32 | -2.16941 | -55.26105 | 16707 ft | 376 kts | 304° |
| 2026-04-21 22:32 | -2.15530 | -55.28292 | 17418 ft | 379 kts | 304° |
| 2026-04-21 22:32 | -2.14089 | -55.30527 | 18126 ft | 382 kts | 304° |
| 2026-04-21 22:32 | -2.12647 | -55.32766 | 18818 ft | 385 kts | 304° |
| 2026-04-21 22:33 | -2.11204 | -55.35005 | 19484 ft | 388 kts | 304° |
| 2026-04-21 22:33 | -2.09735 | -55.37286 | 20147 ft | 391 kts | 304° |
| 2026-04-21 22:33 | -2.08274 | -55.39571 | 20781 ft | 394 kts | 303° |
| 2026-04-21 22:33 | -2.06870 | -55.41905 | 21398 ft | 397 kts | 302° |
| 2026-04-21 22:34 | -2.05459 | -55.44302 | 22005 ft | 400 kts | 302° |
| 2026-04-21 22:34 | -2.04057 | -55.46686 | 22586 ft | 403 kts | 302° |
| 2026-04-21 22:34 | -2.02630 | -55.49110 | 23159 ft | 406 kts | 302° |
| 2026-04-21 22:34 | -2.01181 | -55.51569 | 23727 ft | 408 kts | 301° |
| 2026-04-21 22:35 | -1.99739 | -55.54013 | 24275 ft | 411 kts | 301° |
| 2026-04-21 22:35 | -1.98306 | -55.56440 | 24806 ft | 414 kts | 301° |
| 2026-04-21 22:35 | -1.96828 | -55.58942 | 25332 ft | 417 kts | 301° |
| 2026-04-21 22:35 | -1.95357 | -55.61431 | 25837 ft | 420 kts | 301° |
| 2026-04-21 22:36 | -1.92381 | -55.66465 | 26812 ft | 425 kts | 301° |
| 2026-04-21 22:36 | -1.90875 | -55.69011 | 27274 ft | 428 kts | 301° |
| 2026-04-21 22:36 | -1.89362 | -55.71569 | 27736 ft | 430 kts | 301° |
| 2026-04-21 22:37 | -1.87829 | -55.74161 | 28162 ft | 433 kts | 301° |
| 2026-04-21 22:37 | -1.86292 | -55.76759 | 28594 ft | 436 kts | 301° |
| 2026-04-21 22:37 | -1.84757 | -55.79355 | 29008 ft | 438 kts | 301° |
| 2026-04-21 22:37 | -1.83186 | -55.82010 | 29403 ft | 441 kts | 301° |
| 2026-04-21 22:38 | -1.81633 | -55.84636 | 29797 ft | 443 kts | 301° |
| 2026-04-21 22:38 | -1.80058 | -55.87297 | 30168 ft | 446 kts | 301° |
| 2026-04-21 22:38 | -1.78483 | -55.89960 | 30564 ft | 448 kts | 301° |
| 2026-04-21 22:38 | -1.76913 | -55.92613 | 31028 ft | 447 kts | 301° |
| 2026-04-21 22:39 | -1.75326 | -55.95293 | 31489 ft | 446 kts | 300° |
| 2026-04-21 22:39 | -1.73754 | -55.97950 | 31860 ft | 447 kts | 300° |
| 2026-04-21 22:39 | -1.70589 | -56.03299 | 31884 ft | 445 kts | 300° |
| 2026-04-21 22:40 | -1.67454 | -56.08595 | 31885 ft | 443 kts | 300° |
| 2026-04-21 22:40 | -1.64322 | -56.13886 | 31885 ft | 444 kts | 300° |
| 2026-04-21 22:41 | -1.61196 | -56.19167 | 31885 ft | 444 kts | 300° |
| 2026-04-21 22:41 | -1.58064 | -56.24457 | 31885 ft | 444 kts | 300° |
| 2026-04-21 22:42 | -1.54922 | -56.29763 | 31885 ft | 444 kts | 300° |
| 2026-04-21 22:42 | -1.51790 | -56.35051 | 31885 ft | 444 kts | 300° |
| 2026-04-21 22:43 | -1.48658 | -56.40342 | 31885 ft | 444 kts | 300° |
| 2026-04-21 22:43 | -1.45516 | -56.45646 | 31885 ft | 444 kts | 300° |
| 2026-04-21 22:44 | -1.42377 | -56.50947 | 31885 ft | 444 kts | 300° |
| 2026-04-21 22:44 | -1.39221 | -56.56274 | 31885 ft | 444 kts | 300° |
| 2026-04-21 22:45 | -1.36093 | -56.61556 | 31885 ft | 444 kts | 300° |
| 2026-04-21 22:45 | -1.32941 | -56.66877 | 31885 ft | 444 kts | 300° |
| 2026-04-21 22:46 | -1.29820 | -56.72145 | 31885 ft | 444 kts | 300° |
| 2026-04-21 22:46 | -1.26708 | -56.77398 | 31885 ft | 444 kts | 300° |
| 2026-04-21 22:47 | -1.23579 | -56.82679 | 31885 ft | 444 kts | 300° |
| 2026-04-21 22:47 | -1.20496 | -56.87883 | 31885 ft | 444 kts | 300° |
| 2026-04-21 22:48 | -1.17391 | -56.93122 | 31885 ft | 445 kts | 301° |
| 2026-04-21 22:48 | -1.14255 | -56.98414 | 31885 ft | 447 kts | 301° |
| 2026-04-21 22:49 | -1.11093 | -57.03750 | 31885 ft | 449 kts | 301° |
| 2026-04-21 22:49 | -1.07916 | -57.09110 | 31885 ft | 450 kts | 301° |
| 2026-04-21 22:50 | -1.04732 | -57.14482 | 31885 ft | 450 kts | 301° |
| 2026-04-21 22:50 | -1.01550 | -57.19850 | 31885 ft | 449 kts | 301° |
| 2026-04-21 22:51 | -0.98339 | -57.25269 | 31885 ft | 448 kts | 301° |
| 2026-04-21 22:51 | -0.95159 | -57.30632 | 31885 ft | 448 kts | 300° |
| 2026-04-21 22:52 | -0.92010 | -57.35944 | 31885 ft | 448 kts | 300° |
| 2026-04-21 22:52 | -0.89030 | -57.40972 | 31885 ft | 448 kts | 300° |
| 2026-04-21 22:53 | -0.85767 | -57.46475 | 31885 ft | 448 kts | 300° |
| 2026-04-21 22:53 | -0.82621 | -57.51781 | 31885 ft | 448 kts | 300° |
| 2026-04-21 22:54 | -0.79456 | -57.57120 | 31885 ft | 448 kts | 300° |
| 2026-04-21 22:54 | -0.76264 | -57.62503 | 31883 ft | 448 kts | 300° |
| 2026-04-21 22:55 | -0.73094 | -57.67849 | 31877 ft | 449 kts | 300° |
| 2026-04-21 22:55 | -0.69963 | -57.73129 | 31871 ft | 449 kts | 301° |
| 2026-04-21 22:56 | -0.66483 | -57.78313 | 31864 ft | 449 kts | 308° |
| 2026-04-21 22:56 | -0.62342 | -57.83075 | 31860 ft | 449 kts | 312° |
| 2026-04-21 22:57 | -0.58097 | -57.87691 | 31858 ft | 449 kts | 313° |
| 2026-04-21 22:57 | -0.53906 | -57.92191 | 31858 ft | 449 kts | 313° |
| 2026-04-21 22:58 | -0.49663 | -57.96720 | 31858 ft | 449 kts | 313° |
| 2026-04-21 22:58 | -0.45380 | -58.01278 | 31858 ft | 449 kts | 313° |
| 2026-04-21 22:59 | -0.41092 | -58.05833 | 31858 ft | 449 kts | 313° |
| 2026-04-21 22:59 | -0.36769 | -58.10422 | 31858 ft | 449 kts | 313° |
| 2026-04-21 23:00 | -0.32540 | -58.14908 | 31858 ft | 449 kts | 313° |
| 2026-04-21 23:00 | -0.28237 | -58.19471 | 31858 ft | 449 kts | 313° |
| 2026-04-21 23:01 | -0.23898 | -58.24073 | 31858 ft | 449 kts | 313° |
| 2026-04-21 23:01 | -0.19581 | -58.28649 | 31858 ft | 449 kts | 313° |
| 2026-04-21 23:02 | -0.15250 | -58.33241 | 31858 ft | 449 kts | 313° |
| 2026-04-21 23:02 | -0.10965 | -58.37783 | 31858 ft | 449 kts | 313° |
| 2026-04-21 23:03 | -0.06696 | -58.42309 | 31858 ft | 449 kts | 313° |
| 2026-04-21 23:03 | -0.02374 | -58.46890 | 31858 ft | 449 kts | 313° |
| 2026-04-21 23:04 | 0.01952 | -58.51476 | 31856 ft | 449 kts | 313° |
| 2026-04-21 23:04 | 0.06288 | -58.56073 | 31849 ft | 449 kts | 313° |
| 2026-04-21 23:05 | 0.10584 | -58.60627 | 31842 ft | 449 kts | 313° |
| 2026-04-21 23:05 | 0.14806 | -58.65103 | 31835 ft | 450 kts | 313° |
| 2026-04-21 23:06 | 0.19121 | -58.69678 | 31837 ft | 449 kts | 313° |
| 2026-04-21 23:06 | 0.23449 | -58.74266 | 31857 ft | 450 kts | 313° |
| 2026-04-21 23:07 | 0.27782 | -58.78859 | 31858 ft | 450 kts | 313° |
| 2026-04-21 23:07 | 0.32034 | -58.83368 | 31858 ft | 449 kts | 313° |
| 2026-04-21 23:08 | 0.36368 | -58.87949 | 31858 ft | 452 kts | 313° |
| 2026-04-21 23:08 | 0.40722 | -58.92563 | 31857 ft | 453 kts | 313° |
| 2026-04-21 23:09 | 0.45093 | -58.97203 | 31858 ft | 452 kts | 313° |
| 2026-04-21 23:09 | 0.49425 | -59.01801 | 31858 ft | 453 kts | 313° |
| 2026-04-21 23:10 | 0.53798 | -59.06439 | 31858 ft | 453 kts | 313° |
| 2026-04-21 23:10 | 0.58142 | -59.11046 | 31858 ft | 453 kts | 313° |
| 2026-04-21 23:11 | 0.62507 | -59.15674 | 31858 ft | 453 kts | 313° |
| 2026-04-21 23:11 | 0.66858 | -59.20289 | 31858 ft | 453 kts | 313° |
| 2026-04-21 23:12 | 0.71219 | -59.24912 | 31858 ft | 453 kts | 313° |
| 2026-04-21 23:12 | 0.75583 | -59.29540 | 31858 ft | 453 kts | 313° |
| 2026-04-21 23:13 | 0.79956 | -59.34176 | 31858 ft | 453 kts | 313° |
| 2026-04-21 23:13 | 0.84591 | -59.38568 | 31858 ft | 453 kts | 317° |
| 2026-04-21 23:14 | 0.89261 | -59.42841 | 31858 ft | 453 kts | 317° |
| 2026-04-21 23:14 | 0.93963 | -59.47162 | 31858 ft | 453 kts | 316° |
| 2026-04-21 23:15 | 0.98660 | -59.51490 | 31858 ft | 453 kts | 316° |
| 2026-04-21 23:15 | 1.03323 | -59.55794 | 31858 ft | 454 kts | 316° |
| 2026-04-21 23:16 | 1.07981 | -59.60097 | 31858 ft | 454 kts | 316° |
| 2026-04-21 23:16 | 1.12672 | -59.64433 | 31858 ft | 455 kts | 316° |
| 2026-04-21 23:17 | 1.17378 | -59.68781 | 31858 ft | 455 kts | 316° |
| 2026-04-21 23:17 | 1.22063 | -59.73108 | 31858 ft | 455 kts | 316° |
| 2026-04-21 23:18 | 1.26745 | -59.77432 | 31858 ft | 454 kts | 316° |
| 2026-04-21 23:18 | 1.31427 | -59.81758 | 31858 ft | 455 kts | 316° |
| 2026-04-21 23:19 | 1.36078 | -59.86055 | 31858 ft | 455 kts | 316° |
| 2026-04-21 23:19 | 1.40762 | -59.90383 | 31858 ft | 455 kts | 316° |
| 2026-04-21 23:20 | 1.45432 | -59.94698 | 31858 ft | 455 kts | 316° |
| 2026-04-21 23:20 | 1.50071 | -59.98984 | 31293 ft | 443 kts | 316° |
| 2026-04-21 23:21 | 1.52302 | -60.01046 | 30563 ft | 437 kts | 316° |
| 2026-04-21 23:21 | 1.54513 | -60.03089 | 29969 ft | 428 kts | 316° |
| 2026-04-21 23:21 | 1.56692 | -60.05102 | 29410 ft | 424 kts | 316° |
| 2026-04-21 23:21 | 1.58892 | -60.07138 | 28843 ft | 430 kts | 316° |
| 2026-04-21 23:22 | 1.61079 | -60.09161 | 28252 ft | 423 kts | 316° |
| 2026-04-21 23:22 | 1.63168 | -60.11092 | 27699 ft | 414 kts | 316° |
| 2026-04-21 23:22 | 1.65307 | -60.13072 | 27149 ft | 417 kts | 316° |
| 2026-04-21 23:22 | 1.67470 | -60.15073 | 26575 ft | 417 kts | 316° |
| 2026-04-21 23:23 | 1.69549 | -60.16996 | 26011 ft | 408 kts | 316° |
| 2026-04-21 23:23 | 1.71650 | -60.18939 | 25456 ft | 403 kts | 316° |
| 2026-04-21 23:23 | 1.73757 | -60.20889 | 24907 ft | 409 kts | 316° |
| 2026-04-21 23:23 | 1.75849 | -60.22825 | 24331 ft | 402 kts | 316° |
| 2026-04-21 23:24 | 1.77900 | -60.24726 | 23779 ft | 393 kts | 316° |
| 2026-04-21 23:24 | 1.79905 | -60.26598 | 23250 ft | 398 kts | 316° |
| 2026-04-21 23:24 | 1.81927 | -60.28500 | 22682 ft | 395 kts | 316° |
| 2026-04-21 23:24 | 1.83927 | -60.30387 | 22134 ft | 387 kts | 316° |
| 2026-04-21 23:25 | 1.85879 | -60.32226 | 21615 ft | 387 kts | 316° |
| 2026-04-21 23:25 | 1.87878 | -60.34105 | 21064 ft | 388 kts | 316° |
| 2026-04-21 23:25 | 1.89865 | -60.35965 | 20502 ft | 380 kts | 317° |
| 2026-04-21 23:25 | 1.91774 | -60.37739 | 19982 ft | 375 kts | 317° |
| 2026-04-21 23:26 | 1.93730 | -60.39544 | 19458 ft | 380 kts | 317° |
| 2026-04-21 23:26 | 1.95596 | -60.41255 | 18927 ft | 373 kts | 318° |
| 2026-04-21 23:26 | 1.97548 | -60.43031 | 18391 ft | 365 kts | 318° |
| 2026-04-21 23:26 | 1.99461 | -60.44757 | 17890 ft | 372 kts | 318° |
| 2026-04-21 23:27 | 2.01357 | -60.46469 | 17357 ft | 365 kts | 318° |
| 2026-04-21 23:27 | 2.03255 | -60.48186 | 16836 ft | 357 kts | 319° |
| 2026-04-21 23:27 | 2.05141 | -60.49897 | 16328 ft | 363 kts | 318° |
| 2026-04-21 23:27 | 2.06998 | -60.51589 | 15794 ft | 357 kts | 318° |
| 2026-04-21 23:28 | 2.08821 | -60.53263 | 15282 ft | 349 kts | 318° |
| 2026-04-21 23:28 | 2.10639 | -60.54945 | 14790 ft | 354 kts | 318° |
| 2026-04-21 23:28 | 2.12403 | -60.56590 | 14266 ft | 349 kts | 318° |
| 2026-04-21 23:28 | 2.14164 | -60.58244 | 13767 ft | 341 kts | 318° |
| 2026-04-21 23:29 | 2.15933 | -60.59900 | 13293 ft | 345 kts | 318° |
| 2026-04-21 23:29 | 2.17718 | -60.61486 | 12773 ft | 340 kts | 325° |
| 2026-04-21 23:29 | 2.19757 | -60.62692 | 12257 ft | 330 kts | 337° |
| 2026-04-21 23:29 | 2.21902 | -60.63576 | 11833 ft | 333 kts | 341° |
| 2026-04-21 23:30 | 2.24092 | -60.64388 | 11328 ft | 329 kts | 341° |
| 2026-04-21 23:30 | 2.26258 | -60.65178 | 10831 ft | 324 kts | 341° |
| 2026-04-21 23:30 | 2.28409 | -60.65962 | 10376 ft | 330 kts | 341° |
| 2026-04-21 23:30 | 2.30530 | -60.66739 | 10043 ft | 316 kts | 341° |
| 2026-04-21 23:31 | 2.32573 | -60.67489 | 9957 ft | 296 kts | 341° |
| 2026-04-21 23:31 | 2.34466 | -60.68185 | 9894 ft | 286 kts | 341° |
| 2026-04-21 23:31 | 2.36372 | -60.68884 | 9721 ft | 287 kts | 341° |
| 2026-04-21 23:31 | 2.38244 | -60.69571 | 9271 ft | 282 kts | 341° |
| 2026-04-21 23:32 | 2.40071 | -60.70243 | 8916 ft | 279 kts | 341° |
| 2026-04-21 23:32 | 2.41933 | -60.70927 | 8575 ft | 283 kts | 341° |
| 2026-04-21 23:32 | 2.43774 | -60.71604 | 8195 ft | 277 kts | 341° |
| 2026-04-21 23:32 | 2.45594 | -60.72273 | 7868 ft | 280 kts | 341° |
| 2026-04-21 23:33 | 2.47430 | -60.72948 | 7504 ft | 278 kts | 341° |
| 2026-04-21 23:33 | 2.49240 | -60.73614 | 7144 ft | 271 kts | 340° |
| 2026-04-21 23:33 | 2.51079 | -60.74291 | 6812 ft | 278 kts | 340° |
| 2026-04-21 23:33 | 2.52878 | -60.74952 | 6443 ft | 271 kts | 340° |
| 2026-04-21 23:34 | 2.54652 | -60.75605 | 6121 ft | 273 kts | 340° |
| 2026-04-21 23:34 | 2.56474 | -60.76275 | 5761 ft | 271 kts | 340° |
| 2026-04-21 23:34 | 2.58233 | -60.76922 | 5394 ft | 265 kts | 340° |
| 2026-04-21 23:34 | 2.59991 | -60.77568 | 5070 ft | 271 kts | 340° |
| 2026-04-21 23:35 | 2.61757 | -60.78218 | 4706 ft | 264 kts | 340° |
| 2026-04-21 23:35 | 2.63484 | -60.78853 | 4386 ft | 256 kts | 340° |
| 2026-04-21 23:35 | 2.65137 | -60.79461 | 4109 ft | 247 kts | 340° |
| 2026-04-21 23:35 | 2.66751 | -60.80049 | 4001 ft | 238 kts | 339° |
| 2026-04-21 23:36 | 2.68191 | -60.80713 | 3958 ft | 220 kts | 334° |
| 2026-04-21 23:36 | 2.69606 | -60.81397 | 3600 ft | 218 kts | 334° |
| 2026-04-21 23:36 | 2.70969 | -60.82060 | 3320 ft | 211 kts | 333° |
| 2026-04-21 23:36 | 2.72267 | -60.82705 | 3128 ft | 202 kts | 333° |
| 2026-04-21 23:37 | 2.73499 | -60.83328 | 2883 ft | 192 kts | 332° |
| 2026-04-21 23:37 | 2.74709 | -60.83914 | 2658 ft | 186 kts | 340° |
| 2026-04-21 23:37 | 2.75991 | -60.84119 | 2501 ft | 188 kts | 8° |
| 2026-04-21 23:37 | 2.77177 | -60.83602 | 2469 ft | 186 kts | 43° |
| 2026-04-21 23:38 | 2.77978 | -60.82569 | 2529 ft | 180 kts | 63° |
| 2026-04-21 23:38 | 2.78451 | -60.81459 | 2524 ft | 166 kts | 71° |
| 2026-04-21 23:38 | 2.78875 | -60.80384 | 2496 ft | 165 kts | 68° |
| 2026-04-21 23:38 | 2.79361 | -60.79328 | 2342 ft | 165 kts | 65° |
| 2026-04-21 23:39 | 2.79884 | -60.78281 | 2091 ft | 163 kts | 64° |
| 2026-04-21 23:39 | 2.80407 | -60.77259 | 1875 ft | 163 kts | 64° |
| 2026-04-21 23:39 | 2.80927 | -60.76246 | 1656 ft | 162 kts | 64° |
| 2026-04-21 23:39 | 2.81453 | -60.75219 | 1433 ft | 162 kts | 64° |
| 2026-04-21 23:40 | 2.81974 | -60.74202 | 1211 ft | 161 kts | 64° |
| 2026-04-21 23:40 | 2.82490 | -60.73196 | 991 ft | 161 kts | 64° |
| 2026-04-21 23:40 | 2.83005 | -60.72189 | 784 ft | 160 kts | 64° |
| 2026-04-21 23:40 | 2.83507 | -60.71193 | 566 ft | 158 kts | 64° |
| 2026-04-21 23:41 | 2.84024 | -60.70200 | 339 ft | 156 kts | 63° |
| 2026-04-21 23:41 | 2.84490 | -60.69282 | 282 ft | 124 kts | 64° |
| 2026-04-21 23:41 | 2.84778 | -60.68718 | 281 ft | 60 kts | 63° |
| 2026-04-21 23:41 | 2.84890 | -60.68492 | 281 ft | 15 kts | 73° |
| 2026-04-21 23:42 | 2.84847 | -60.68453 | 281 ft | 6 kts | 158° |
| 2026-04-21 23:42 | 2.84827 | -60.68444 | 281 ft | 0 kts | 153° |
| 2026-04-21 23:42 | 2.84826 | -60.68444 | 281 ft | 0 kts | 153° |
| 2026-04-21 23:43 | 2.84803 | -60.68433 | 281 ft | 5 kts | 155° |
| 2026-04-21 23:44 | 2.84761 | -60.68436 | 281 ft | 7 kts | 215° |
| 2026-04-21 23:44 | 2.84730 | -60.68484 | 281 ft | 9 kts | 241° |
| 2026-04-21 23:44 | 2.84696 | -60.68545 | 281 ft | 10 kts | 242° |
| 2026-04-21 23:44 | 2.84659 | -60.68616 | 281 ft | 11 kts | 242° |
| 2026-04-21 23:45 | 2.84618 | -60.68694 | 281 ft | 13 kts | 242° |
| 2026-04-21 23:45 | 2.84525 | -60.68875 | 281 ft | 15 kts | 242° |
| 2026-04-21 23:45 | 2.84473 | -60.68976 | 281 ft | 16 kts | 242° |
| 2026-04-21 23:46 | 2.84419 | -60.69086 | 281 ft | 17 kts | 244° |
| 2026-04-21 23:46 | 2.84371 | -60.69184 | 281 ft | 13 kts | 244° |
| 2026-04-21 23:46 | 2.84305 | -60.69231 | 281 ft | 12 kts | 172° |
| 2026-04-21 23:46 | 2.84238 | -60.69205 | 281 ft | 5 kts | 152° |
| 2026-04-21 23:47 | 2.84234 | -60.69203 | 281 ft | 0 kts | 152° |